createdAt,value
2019-04-22T00:02:07.975Z,66.90
2019-04-22T00:04:58.924Z,66.70
2019-04-22T00:07:56.794Z,66.90
2019-04-22T00:10:44.291Z,66.90
2019-04-22T00:13:29.192Z,67.00
2019-04-22T00:15:59.304Z,67.20
2019-04-22T00:19:01.355Z,67.40
2019-04-22T00:21:35.362Z,67.50
2019-04-22T00:24:12.074Z,67.50
2019-04-22T00:26:59.945Z,67.40
2019-04-22T00:29:49.886Z,67.60
2019-04-22T00:32:39.633Z,67.50
2019-04-22T00:35:19.787Z,67.80
2019-04-22T00:38:03.486Z,67.70
2019-04-22T00:40:46.075Z,68.00
2019-04-22T00:43:28.844Z,67.90
2019-04-22T00:46:15.621Z,67.70
2019-04-22T00:49:20.485Z,67.50
2019-04-22T00:51:33.784Z,67.50
2019-04-22T00:54:14.266Z,67.40
2019-04-22T00:57:01.154Z,67.40
2019-04-22T00:59:37.504Z,67.00
2019-04-22T01:02:27.423Z,66.90
2019-04-22T01:05:08.101Z,66.90
2019-04-22T01:07:49.894Z,66.80
2019-04-22T01:10:31.880Z,66.80
2019-04-22T01:13:15.891Z,66.60
2019-04-22T01:16:00.881Z,66.90
2019-04-22T01:18:36.211Z,67.10
2019-04-22T01:21:24.376Z,67.20
2019-04-22T01:23:57.745Z,67.00
2019-04-22T01:26:34.553Z,67.10
2019-04-22T01:29:14.834Z,66.90
2019-04-22T01:31:46.021Z,67.10
2019-04-22T01:34:40.878Z,67.30
2019-04-22T01:37:28.885Z,66.90
2019-04-22T01:40:21.477Z,66.80
2019-04-22T01:43:02.114Z,66.80
2019-04-22T01:45:45.028Z,66.50
2019-04-22T01:48:26.846Z,67.40
2019-04-22T01:51:01.330Z,66.30
2019-04-22T01:53:51.748Z,66.00
2019-04-22T01:56:36.469Z,66.00
2019-04-22T01:58:54.597Z,65.40
2019-04-22T02:01:41.732Z,65.20
2019-04-22T02:04:13.871Z,64.90
2019-04-22T02:06:57.247Z,64.90
2019-04-22T02:09:45.621Z,64.90
2019-04-22T02:12:33.712Z,64.90
2019-04-22T02:15:23.444Z,64.90
2019-04-22T02:18:17.834Z,65.00
2019-04-22T02:21:01.700Z,65.10
2019-04-22T02:26:57.663Z,64.80
2019-04-22T02:29:47.277Z,64.80
2019-04-22T02:35:30.636Z,65.00
2019-04-22T02:37:35.410Z,65.20
2019-04-22T02:40:09.735Z,65.10
2019-04-22T02:42:45.640Z,65.10
2019-04-22T02:45:10.017Z,65.30
2019-04-22T02:47:47.592Z,65.40
2019-04-22T02:50:32.539Z,65.50
2019-04-22T02:53:47.975Z,65.40
2019-04-22T02:56:27.582Z,65.50
2019-04-22T03:02:04.816Z,65.30
2019-04-22T03:04:57.877Z,65.10
2019-04-22T03:07:55.219Z,65.00
2019-04-22T03:10:41.865Z,65.10
2019-04-22T03:12:51.987Z,65.30
2019-04-22T03:15:48.307Z,65.40
2019-04-22T03:18:09.938Z,65.30
2019-04-22T03:20:42.711Z,65.30
2019-04-22T03:28:43.574Z,65.70
2019-04-22T03:40:28.210Z,65.60
2019-04-22T03:45:42.546Z,65.50
2019-04-22T03:48:45.513Z,65.40
2019-04-22T03:51:38.755Z,65.40
2019-04-22T03:54:29.657Z,65.80
2019-04-22T03:57:25.050Z,66.10
2019-04-22T04:02:38.873Z,66.30
2019-04-22T04:05:24.367Z,66.10
2019-04-22T04:16:03.122Z,66.00
2019-04-22T04:19:07.716Z,65.80
2019-04-22T04:21:37.923Z,65.70
2019-04-22T04:37:56.060Z,64.30
2019-04-22T04:43:08.378Z,63.60
2019-04-22T04:45:49.285Z,63.50
2019-04-22T04:48:18.491Z,63.00
2019-04-22T04:50:55.729Z,62.50
2019-04-22T04:55:38.782Z,59.80
2019-04-22T04:58:27.244Z,58.20
2019-04-22T05:03:32.909Z,55.20
2019-04-22T05:06:12.722Z,54.10
2019-04-22T05:17:03.989Z,51.30
2019-04-22T05:19:37.579Z,50.00
2019-04-22T05:22:20.767Z,49.60
2019-04-22T05:27:45.445Z,48.00
2019-04-22T05:30:43.251Z,48.40
2019-04-22T05:33:19.118Z,47.20
2019-04-22T05:35:53.589Z,45.80
2019-04-22T05:38:39.852Z,45.40
2019-04-22T05:41:10.193Z,44.80
2019-04-22T05:44:04.988Z,44.00
2019-04-22T05:46:49.537Z,43.80
2019-04-22T05:49:35.113Z,43.00
2019-04-22T05:52:26.894Z,41.80
2019-04-22T05:55:21.387Z,41.20
2019-04-22T05:58:09.040Z,41.10
2019-04-22T06:03:39.417Z,40.50
2019-04-22T06:11:32.143Z,42.40
2019-04-22T06:14:22.981Z,42.70
2019-04-22T06:17:11.109Z,43.10
2019-04-22T06:19:50.882Z,41.20
2019-04-22T06:22:45.003Z,41.30
2019-04-22T06:27:38.640Z,40.90
2019-04-22T06:30:04.318Z,39.70
2019-04-22T06:32:51.802Z,39.60
2019-04-22T06:35:09.516Z,38.80
2019-04-22T06:38:14.564Z,39.10
2019-04-22T06:40:11.010Z,39.50
2019-04-22T06:42:58.037Z,39.00
2019-04-22T06:45:40.913Z,39.10
2019-04-22T06:48:52.475Z,39.90
2019-04-22T06:51:30.877Z,38.80
2019-04-22T06:54:14.219Z,38.30
2019-04-22T06:56:59.720Z,39.80
2019-04-22T06:59:53.680Z,40.00
2019-04-22T07:02:47.160Z,40.80
2019-04-22T07:05:07.886Z,40.70
2019-04-22T07:07:33.343Z,41.60
2019-04-22T07:10:15.079Z,42.00
2019-04-22T07:12:36.550Z,42.90
2019-04-22T07:15:12.762Z,43.30
2019-04-22T07:17:55.085Z,42.60
2019-04-22T07:26:21.571Z,43.00
2019-04-22T07:29:17.569Z,43.70
2019-04-22T07:34:52.779Z,43.30
2019-04-22T07:37:59.177Z,43.50
2019-04-22T07:40:40.018Z,43.10
2019-04-22T07:43:29.185Z,42.80
2019-04-22T07:52:18.744Z,42.60
2019-04-22T07:55:12.259Z,43.10
2019-04-22T07:57:51.782Z,43.30
2019-04-22T08:00:38.812Z,43.40
2019-04-22T08:03:32.060Z,41.80
2019-04-22T08:06:12.357Z,40.60
2019-04-22T08:08:58.396Z,40.00
2019-04-22T08:11:43.765Z,41.00
2019-04-22T08:14:16.212Z,41.20
2019-04-22T08:17:19.261Z,39.70
2019-04-22T08:19:43.101Z,39.90
2019-04-22T08:22:24.021Z,39.40
2019-04-22T08:25:04.158Z,39.50
2019-04-22T08:27:50.790Z,40.30
2019-04-22T08:30:33.780Z,40.90
2019-04-22T08:33:15.981Z,40.50
2019-04-22T08:36:07.167Z,40.80
2019-04-22T08:38:43.658Z,40.70
2019-04-22T08:41:27.239Z,39.50
2019-04-22T08:44:05.369Z,38.00
2019-04-22T08:47:04.726Z,38.40
2019-04-22T08:49:28.735Z,38.90
2019-04-22T08:52:09.733Z,39.40
2019-04-22T08:55:01.785Z,39.00
2019-04-22T08:58:00.016Z,39.50
2019-04-22T09:00:12.927Z,38.80
2019-04-22T09:03:02.595Z,38.70
2019-04-22T09:06:02.030Z,39.50
2019-04-22T09:08:32.500Z,39.50
2019-04-22T09:11:16.102Z,38.90
2019-04-22T09:13:58.672Z,38.60
2019-04-22T09:19:12.287Z,38.40
2019-04-22T09:22:03.415Z,38.20
2019-04-22T09:24:30.347Z,38.60
2019-04-22T09:26:53.956Z,37.70
2019-04-22T09:29:34.003Z,38.70
2019-04-22T09:32:09.524Z,40.60
2019-04-22T09:34:28.024Z,39.80
2019-04-22T09:37:07.839Z,40.30
2019-04-22T09:45:34.408Z,39.90
2019-04-22T09:48:30.122Z,39.80
2019-04-22T09:54:14.934Z,39.60
2019-04-22T09:56:58.012Z,39.80
2019-04-22T09:59:57.762Z,40.50
2019-04-22T10:02:41.263Z,38.20
2019-04-22T10:05:14.623Z,39.50
2019-04-22T10:07:42.621Z,39.90
2019-04-22T10:15:10.156Z,40.30
2019-04-22T10:18:05.558Z,38.90
2019-04-22T10:20:54.149Z,38.00
2019-04-22T10:23:47.157Z,37.70
2019-04-22T10:26:34.889Z,38.10
2019-04-22T10:29:31.045Z,36.60
2019-04-22T10:32:07.075Z,36.30
2019-04-22T10:37:34.265Z,35.80
2019-04-22T10:40:44.783Z,35.60
2019-04-22T10:43:33.116Z,35.40
2019-04-22T10:46:22.171Z,36.20
2019-04-22T10:49:12.529Z,36.00
2019-04-22T10:52:00.669Z,35.60
2019-04-22T10:54:49.467Z,36.10
2019-04-22T10:57:39.018Z,35.50
2019-04-22T11:00:29.313Z,35.60
2019-04-22T11:03:39.530Z,35.60
2019-04-22T11:06:29.540Z,37.20
2019-04-22T11:09:18.335Z,36.80
2019-04-22T11:12:13.684Z,36.20
2019-04-22T11:14:58.185Z,36.90
2019-04-22T11:20:37.776Z,37.20
2019-04-22T11:23:06.981Z,37.00
2019-04-22T11:25:55.276Z,36.90
2019-04-22T11:28:43.468Z,37.60
2019-04-22T11:31:34.433Z,38.00
2019-04-22T11:34:22.513Z,38.00
2019-04-22T11:37:10.504Z,38.60
2019-04-22T11:40:18.912Z,37.90
2019-04-22T11:42:50.180Z,36.90
2019-04-22T11:45:39.630Z,38.20
2019-04-22T11:48:29.188Z,38.40
2019-04-22T11:54:25.229Z,38.70
2019-04-22T11:57:13.168Z,39.40
2019-04-22T12:00:01.116Z,38.70
2019-04-22T12:05:37.582Z,38.50
2019-04-22T12:08:07.347Z,38.30
2019-04-22T12:10:44.061Z,39.30
2019-04-22T12:13:08.082Z,40.30
2019-04-22T12:18:31.270Z,37.90
2019-04-22T12:21:19.439Z,38.30
2019-04-22T12:24:09.130Z,37.90
2019-04-22T12:27:00.140Z,38.00
2019-04-22T12:29:49.323Z,38.10
2019-04-22T12:32:37.252Z,39.10
2019-04-22T12:38:20.269Z,39.20
2019-04-22T12:41:11.944Z,38.30
2019-04-22T12:43:59.139Z,37.10
2019-04-22T12:46:48.058Z,37.60
2019-04-22T12:49:40.461Z,37.50
2019-04-22T12:52:36.989Z,38.50
2019-04-22T12:58:23.608Z,37.10
2019-04-22T13:01:13.175Z,36.40
2019-04-22T13:04:05.756Z,35.70
2019-04-22T13:06:44.063Z,35.50
2019-04-22T13:09:25.204Z,36.50
2019-04-22T13:12:06.904Z,37.60
2019-04-22T13:14:48.881Z,37.80
2019-04-22T13:17:31.265Z,38.30
2019-04-22T13:20:15.089Z,36.30
2019-04-22T13:22:56.812Z,37.20
2019-04-22T13:25:38.914Z,36.60
2019-04-22T13:28:21.040Z,36.70
2019-04-22T13:31:02.334Z,36.70
2019-04-22T13:33:44.182Z,35.70
2019-04-22T13:36:27.397Z,36.10
2019-04-22T13:39:07.369Z,35.80
2019-04-22T13:41:52.170Z,37.80
2019-04-22T13:44:18.967Z,34.90
2019-04-22T13:53:44.922Z,34.40
2019-04-22T13:56:12.523Z,34.70
2019-04-22T14:02:10.471Z,31.60
2019-04-22T14:04:54.735Z,31.20
2019-04-22T14:07:36.907Z,31.70
2019-04-22T14:10:18.486Z,32.70
2019-04-22T14:13:00.638Z,32.80
2019-04-22T14:15:43.854Z,33.30
2019-04-22T14:18:25.215Z,33.70
2019-04-22T14:21:06.936Z,34.60
2019-04-22T14:23:48.712Z,35.00
2019-04-22T14:26:46.894Z,34.60
2019-04-22T14:29:11.697Z,35.30
2019-04-22T14:34:36.249Z,34.50
2019-04-22T14:37:18.602Z,34.90
2019-04-22T14:40:00.646Z,35.30
2019-04-22T14:43:03.706Z,36.10
2019-04-22T14:44:12.632Z,35.00
2019-04-22T14:45:58.493Z,35.20
2019-04-22T14:48:38.724Z,35.30
2019-04-22T14:51:07.641Z,36.40
2019-04-22T14:53:50.228Z,36.80
2019-04-22T14:56:16.125Z,37.60
2019-04-22T14:58:56.661Z,37.50
2019-04-22T15:01:41.032Z,38.00
2019-04-22T15:04:08.967Z,37.90
2019-04-22T15:06:50.447Z,38.20
2019-04-22T15:09:32.303Z,38.80
2019-04-22T15:12:20.586Z,39.40
2019-04-22T15:14:43.653Z,39.40
2019-04-22T15:17:20.828Z,40.10
2019-04-22T15:19:53.956Z,38.80
2019-04-22T15:22:22.860Z,38.80
2019-04-22T15:24:52.418Z,37.20
2019-04-22T15:27:41.573Z,37.60
2019-04-22T15:30:30.732Z,37.60
2019-04-22T15:33:19.401Z,37.50
2019-04-22T15:36:10.001Z,38.40
2019-04-22T15:38:59.617Z,38.70
2019-04-22T15:41:58.157Z,39.00
2019-04-22T15:44:38.100Z,39.00
2019-04-22T15:47:27.044Z,39.50
2019-04-22T15:50:16.192Z,39.60
2019-04-22T15:56:14.708Z,39.40
2019-04-22T15:58:45.903Z,39.30
2019-04-22T16:01:23.012Z,38.30
2019-04-22T16:03:45.159Z,38.20
2019-04-22T16:06:34.711Z,38.40
2019-04-22T16:09:17.359Z,38.50
2019-04-22T16:12:10.981Z,38.60
2019-04-22T16:14:45.396Z,38.70
2019-04-22T16:17:22.565Z,39.10
2019-04-22T16:20:03.941Z,38.40
2019-04-22T16:23:05.571Z,38.40
2019-04-22T16:25:49.503Z,38.00
2019-04-22T16:28:31.309Z,37.00
2019-04-22T16:31:13.491Z,37.10
2019-04-22T16:33:56.213Z,37.30
2019-04-22T16:36:38.644Z,38.40
2019-04-22T16:39:20.732Z,38.00
2019-04-22T16:42:02.631Z,37.90
2019-04-22T16:44:45.992Z,37.80
2019-04-22T16:47:27.798Z,38.10
2019-04-22T16:50:09.940Z,38.60
2019-04-22T16:52:52.211Z,39.10
2019-04-22T16:55:34.855Z,39.40
2019-04-22T16:58:16.719Z,40.70
2019-04-22T17:00:58.812Z,40.70
2019-04-22T17:03:58.829Z,40.50
2019-04-22T17:06:45.487Z,40.90
2019-04-22T17:09:27.844Z,41.20
2019-04-22T17:12:09.801Z,41.70
2019-04-22T17:14:56.760Z,41.10
2019-04-22T17:17:22.317Z,41.10
2019-04-22T17:19:51.345Z,41.20
2019-04-22T17:22:21.635Z,41.10
2019-04-22T17:25:09.808Z,41.20
2019-04-22T17:27:59.174Z,41.50
2019-04-22T17:30:47.825Z,41.60
2019-04-22T17:36:44.451Z,43.30
2019-04-22T17:39:57.309Z,42.60
2019-04-22T17:42:42.326Z,42.50
2019-04-22T17:45:56.035Z,42.70
2019-04-22T17:49:04.429Z,43.20
2019-04-22T17:52:15.685Z,43.50
2019-04-22T17:55:02.702Z,44.30
2019-04-22T17:57:49.508Z,44.70
2019-04-22T18:00:41.900Z,45.00
2019-04-22T18:03:03.151Z,45.10
2019-04-22T18:05:28.524Z,45.20
2019-04-22T18:08:27.436Z,45.40
2019-04-22T18:11:05.975Z,45.90
2019-04-22T18:13:55.024Z,46.20
2019-04-22T18:16:34.651Z,46.20
2019-04-22T18:19:16.758Z,46.30
2019-04-22T18:21:53.352Z,46.70
2019-04-22T18:24:26.414Z,46.80
2019-04-22T18:27:34.354Z,46.80
2019-04-22T18:30:02.200Z,46.80
2019-04-22T18:32:46.719Z,47.10
2019-04-22T18:35:26.476Z,47.20
2019-04-22T18:38:26.884Z,47.40
2019-04-22T18:40:53.574Z,47.70
2019-04-22T18:43:42.211Z,48.00
2019-04-22T18:46:15.772Z,48.20
2019-04-22T18:49:06.977Z,48.30
2019-04-22T18:58:02.616Z,49.00
2019-04-22T19:00:59.655Z,49.10
2019-04-22T19:07:23.566Z,49.50
2019-04-22T19:10:03.323Z,49.70
2019-04-22T19:12:53.123Z,49.90
2019-04-22T19:15:18.962Z,50.30
2019-04-22T19:17:54.469Z,50.40
2019-04-22T19:20:18.466Z,50.70
2019-04-22T19:22:43.836Z,51.00
2019-04-22T19:25:05.885Z,51.30
2019-04-22T19:27:42.196Z,50.70
2019-04-22T19:30:16.406Z,50.50
2019-04-22T19:32:48.569Z,50.90
2019-04-22T19:35:14.092Z,51.30
2019-04-22T19:37:42.500Z,51.50
2019-04-22T19:41:13.476Z,51.50
2019-04-22T19:43:46.514Z,51.60
2019-04-22T19:46:28.190Z,51.50
2019-04-22T19:49:34.061Z,51.50
2019-04-22T19:52:21.902Z,51.40
2019-04-22T19:55:09.511Z,51.70
2019-04-22T19:57:52.517Z,52.40
2019-04-22T20:00:50.671Z,52.20
2019-04-22T20:03:57.863Z,52.50
2019-04-22T20:09:43.882Z,52.90
2019-04-22T20:12:21.455Z,52.50
2019-04-22T20:15:00.391Z,52.70
2019-04-22T20:18:08.615Z,52.80
2019-04-22T20:20:31.714Z,52.70
2019-04-22T20:23:10.190Z,52.90
2019-04-22T20:25:51.058Z,53.30
2019-04-22T20:28:37.789Z,53.50
2019-04-22T20:31:19.299Z,53.40
2019-04-22T20:34:12.945Z,53.30
2019-04-22T20:36:57.028Z,53.20
2019-04-22T20:39:36.312Z,53.30
2019-04-22T20:42:23.379Z,53.30
2019-04-22T20:44:57.196Z,53.40
2019-04-22T20:47:32.222Z,53.10
2019-04-22T20:50:25.067Z,53.70
2019-04-22T20:53:07.155Z,53.70
2019-04-22T20:55:43.631Z,53.70
2019-04-22T20:58:28.293Z,54.00
2019-04-22T21:00:53.157Z,54.20
2019-04-22T21:03:23.773Z,54.10
2019-04-22T21:06:27.458Z,54.40
2019-04-22T21:09:03.127Z,54.40
2019-04-22T21:11:38.574Z,54.70
2019-04-22T21:14:19.953Z,54.90
2019-04-22T21:17:10.247Z,55.00
2019-04-22T21:20:10.009Z,55.10
2019-04-22T21:22:33.545Z,55.40
2019-04-22T21:25:08.815Z,55.20
2019-04-22T21:28:06.287Z,55.20
2019-04-22T21:30:37.755Z,55.30
2019-04-22T21:33:18.505Z,55.00
2019-04-22T21:36:14.053Z,55.10
2019-04-22T21:38:51.617Z,55.20
2019-04-22T21:41:30.688Z,55.20
2019-04-22T21:44:14.410Z,55.60
2019-04-22T21:47:08.646Z,55.60
2019-04-22T21:49:40.487Z,55.80
2019-04-22T21:52:24.397Z,56.00
2019-04-22T21:55:14.424Z,56.20
2019-04-22T21:57:57.354Z,56.30
2019-04-22T22:00:43.492Z,56.60
2019-04-22T22:03:19.442Z,56.80
2019-04-22T22:05:53.391Z,57.10
2019-04-22T22:08:46.085Z,57.20
2019-04-22T22:11:27.845Z,57.40
2019-04-22T22:14:07.666Z,57.70
2019-04-22T22:16:44.555Z,57.80
2019-04-22T22:19:35.949Z,58.00
2019-04-22T22:22:35.232Z,58.10
2019-04-22T22:25:04.560Z,58.20
2019-04-22T22:27:40.199Z,58.30
2019-04-22T22:30:42.723Z,58.50
2019-04-22T22:36:27.137Z,58.80
2019-04-22T22:38:55.094Z,59.00
2019-04-22T22:41:29.983Z,59.20
2019-04-22T22:44:27.252Z,59.30
2019-04-22T22:47:35.812Z,59.50
2019-04-22T22:50:20.865Z,59.90
2019-04-22T22:56:00.555Z,60.20
2019-04-22T22:58:54.072Z,60.50
2019-04-22T23:01:39.679Z,60.80
2019-04-22T23:04:37.238Z,61.10
2019-04-22T23:07:24.284Z,61.20
2019-04-22T23:13:01.651Z,62.10
2019-04-22T23:15:25.453Z,62.20
2019-04-22T23:17:47.963Z,62.30
2019-04-22T23:20:34.324Z,62.80
2019-04-22T23:23:36.125Z,63.10
2019-04-22T23:26:11.887Z,63.40
2019-04-22T23:28:54.776Z,63.60
2019-04-22T23:31:22.120Z,63.80
2019-04-22T23:33:57.280Z,64.20
2019-04-22T23:36:36.820Z,64.50
2019-04-22T23:39:15.733Z,64.80
2019-04-22T23:41:51.341Z,65.00
2019-04-22T23:46:46.499Z,65.60
2019-04-22T23:49:17.456Z,65.80
2019-04-22T23:52:06.854Z,66.00
2019-04-22T23:54:31.587Z,66.30
2019-04-22T23:57:20.753Z,66.40
